createdAt,value
2022-08-04T00:02:38.305Z,41.47
2022-08-04T00:05:08.559Z,42.70
2022-08-04T00:08:11.338Z,45.11
2022-08-04T00:10:41.921Z,41.51
2022-08-04T00:13:10.505Z,41.95
2022-08-04T00:15:38.955Z,51.68
2022-08-04T00:18:41.217Z,44.29
2022-08-04T00:21:14.859Z,44.63
2022-08-04T00:24:11.383Z,43.49
2022-08-04T00:26:34.836Z,46.83
2022-08-04T00:29:03.233Z,45.95
2022-08-04T00:31:53.958Z,44.34
2022-08-04T00:34:20.058Z,48.40
2022-08-04T00:36:48.312Z,45.47
2022-08-04T00:39:19.860Z,45.28
2022-08-04T00:42:37.264Z,43.90
2022-08-04T00:46:15.004Z,42.63
2022-08-04T00:49:13.485Z,42.03
2022-08-04T00:51:41.752Z,43.60
2022-08-04T00:54:49.213Z,42.79
2022-08-04T00:57:38.496Z,47.20
2022-08-04T01:00:14.313Z,45.53
2022-08-04T01:03:37.812Z,43.37
2022-08-04T01:06:21.911Z,46.55
2022-08-04T01:09:08.738Z,45.63
2022-08-04T01:12:32.373Z,44.85
2022-08-04T01:15:56.486Z,45.04
2022-08-04T01:18:52.680Z,45.53
2022-08-04T01:21:51.604Z,44.75
2022-08-04T01:24:44.640Z,43.82
2022-08-04T01:27:29.824Z,45.34
2022-08-04T01:30:01.529Z,45.05
2022-08-04T01:32:39.243Z,44.70
2022-08-04T01:35:49.224Z,44.61
2022-08-04T01:38:37.709Z,44.15
2022-08-04T01:41:14.549Z,44.05
2022-08-04T01:43:45.473Z,42.82
2022-08-04T01:46:18.000Z,46.36
2022-08-04T01:48:48.210Z,44.10
2022-08-04T01:51:16.570Z,44.24
2022-08-04T01:53:45.724Z,45.54
2022-08-04T01:56:14.023Z,47.99
2022-08-04T01:58:42.471Z,45.63
2022-08-04T02:01:13.976Z,45.47
2022-08-04T02:04:22.029Z,47.41
2022-08-04T02:07:31.520Z,48.05
2022-08-04T02:10:37.008Z,47.34
2022-08-04T02:14:03.893Z,46.92
2022-08-04T02:16:53.293Z,45.51
2022-08-04T02:20:07.233Z,50.08
2022-08-04T02:22:44.593Z,48.99
2022-08-04T02:25:13.260Z,49.47
2022-08-04T02:28:01.971Z,48.38
2022-08-04T02:33:46.935Z,48.28
2022-08-04T02:36:31.193Z,48.71
2022-08-04T02:39:07.478Z,45.90
2022-08-04T02:41:37.173Z,45.29
2022-08-04T02:44:10.233Z,44.77
2022-08-04T02:46:41.524Z,44.11
2022-08-04T02:49:11.200Z,44.52
2022-08-04T02:51:46.445Z,44.61
2022-08-04T02:54:22.325Z,44.32
2022-08-04T02:57:02.531Z,49.49
2022-08-04T03:00:00.590Z,47.40
2022-08-04T03:03:09.464Z,46.11
2022-08-04T03:06:17.637Z,44.65
2022-08-04T03:09:14.985Z,47.26
2022-08-04T03:12:01.646Z,45.61
2022-08-04T03:14:59.903Z,46.02
2022-08-04T03:18:38.976Z,45.47
2022-08-04T03:21:30.539Z,44.51
2022-08-04T03:24:35.389Z,44.31
2022-08-04T03:27:55.726Z,43.64
2022-08-04T03:30:57.586Z,43.87
2022-08-04T03:33:53.385Z,47.29
2022-08-04T03:37:09.084Z,52.08
2022-08-04T03:40:08.932Z,46.66
2022-08-04T03:42:51.520Z,45.52
2022-08-04T03:46:14.676Z,46.24
2022-08-04T03:49:01.141Z,45.48
2022-08-04T03:52:01.939Z,46.18
2022-08-04T03:55:45.881Z,47.06
2022-08-04T03:58:33.890Z,44.89
2022-08-04T04:01:29.821Z,45.68
2022-08-04T04:04:48.175Z,46.87
2022-08-04T04:08:12.572Z,46.55
2022-08-04T04:11:15.174Z,47.15
2022-08-04T04:14:10.861Z,47.82
2022-08-04T04:17:24.405Z,47.83
2022-08-04T04:20:51.159Z,45.73
2022-08-04T04:24:00.485Z,45.26
2022-08-04T04:26:46.532Z,44.12
2022-08-04T04:30:04.249Z,46.87
2022-08-04T04:32:50.454Z,44.61
2022-08-04T04:36:21.751Z,47.33
2022-08-04T04:39:25.700Z,46.26
2022-08-04T04:42:39.075Z,45.95
2022-08-04T04:45:47.536Z,45.18
2022-08-04T04:48:44.042Z,46.54
2022-08-04T04:51:43.471Z,47.72
2022-08-04T04:54:44.036Z,48.59
2022-08-04T04:57:53.478Z,47.91
2022-08-04T05:00:13.646Z,50.06
2022-08-04T05:03:15.780Z,48.00
2022-08-04T05:06:21.916Z,48.90
2022-08-04T05:09:36.693Z,50.53
2022-08-04T05:14:37.122Z,47.74
2022-08-04T05:15:53.954Z,48.01
2022-08-04T05:18:27.990Z,49.29
2022-08-04T05:22:05.457Z,47.79
2022-08-04T05:24:41.018Z,53.89
2022-08-04T05:27:29.523Z,53.28
2022-08-04T05:30:07.346Z,50.27
2022-08-04T05:32:49.187Z,52.00
2022-08-04T05:36:17.932Z,52.14
2022-08-04T05:38:39.641Z,53.46
2022-08-04T05:41:09.796Z,53.17
2022-08-04T05:43:45.750Z,54.81
2022-08-04T05:46:15.634Z,52.18
2022-08-04T05:48:45.672Z,50.63
2022-08-04T05:51:15.274Z,50.37
2022-08-04T05:53:44.584Z,49.40
2022-08-04T05:56:15.932Z,49.02
2022-08-04T05:58:45.286Z,50.08
2022-08-04T06:01:17.922Z,50.10
2022-08-04T06:03:49.297Z,50.27
2022-08-04T06:06:18.911Z,48.35
2022-08-04T06:08:47.397Z,50.72
2022-08-04T06:11:16.567Z,50.13
2022-08-04T06:13:53.856Z,50.62
2022-08-04T06:16:30.217Z,51.80
2022-08-04T06:20:03.892Z,55.22
2022-08-04T06:22:00.317Z,53.82
2022-08-04T06:24:30.300Z,54.13
2022-08-04T06:26:58.852Z,53.06
2022-08-04T06:29:37.683Z,53.04
2022-08-04T06:32:33.791Z,52.25
2022-08-04T06:35:07.154Z,54.64
2022-08-04T06:37:42.111Z,54.40
2022-08-04T06:40:31.401Z,52.30
2022-08-04T06:43:07.010Z,52.43
2022-08-04T06:45:39.971Z,52.48
2022-08-04T06:48:10.768Z,51.33
2022-08-04T06:51:30.581Z,52.93
2022-08-04T06:53:29.605Z,54.32
2022-08-04T06:55:59.596Z,51.75
2022-08-04T06:58:28.799Z,49.76
2022-08-04T07:01:01.834Z,50.83
2022-08-04T07:03:30.762Z,51.74
2022-08-04T07:05:59.255Z,49.82
2022-08-04T07:08:36.222Z,51.39
2022-08-04T07:11:05.906Z,49.60
2022-08-04T07:13:34.357Z,50.40
2022-08-04T07:16:02.874Z,50.32
2022-08-04T07:18:32.214Z,49.94
2022-08-04T07:21:01.090Z,48.48
2022-08-04T07:23:29.481Z,49.68
2022-08-04T07:26:00.052Z,48.12
2022-08-04T07:28:40.815Z,49.02
2022-08-04T07:31:34.233Z,50.89
2022-08-04T07:34:16.434Z,50.99
2022-08-04T07:36:56.171Z,49.77
2022-08-04T07:39:31.294Z,51.59
2022-08-04T07:42:02.378Z,49.56
2022-08-04T07:44:40.042Z,48.61
2022-08-04T07:47:08.786Z,48.98
2022-08-04T07:49:55.180Z,49.08
2022-08-04T07:52:26.870Z,48.18
2022-08-04T07:54:55.460Z,48.92
2022-08-04T07:57:41.737Z,47.92
2022-08-04T08:00:14.831Z,47.99
2022-08-04T08:02:43.927Z,48.97
2022-08-04T08:05:16.791Z,47.59
2022-08-04T08:07:54.138Z,48.63
2022-08-04T08:10:24.786Z,47.98
2022-08-04T08:12:54.113Z,48.72
2022-08-04T08:15:23.196Z,48.74
2022-08-04T08:17:59.921Z,48.78
2022-08-04T08:20:33.251Z,47.99
2022-08-04T08:23:03.341Z,48.05
2022-08-04T08:25:33.891Z,48.11
2022-08-04T08:28:05.306Z,47.26
2022-08-04T08:30:34.470Z,46.82
2022-08-04T08:33:10.076Z,46.36
2022-08-04T08:36:09.806Z,46.10
2022-08-04T08:39:18.735Z,45.91
2022-08-04T08:42:22.104Z,45.16
2022-08-04T08:45:57.285Z,44.78
2022-08-04T08:49:07.608Z,45.06
2022-08-04T08:52:05.525Z,42.66
2022-08-04T08:55:16.346Z,44.36
2022-08-04T08:58:01.636Z,42.80
2022-08-04T09:01:33.208Z,41.00
2022-08-04T09:04:22.838Z,39.57
2022-08-04T09:08:08.683Z,37.96
2022-08-04T09:10:51.897Z,38.13
2022-08-04T09:13:46.126Z,35.02
2022-08-04T09:16:44.493Z,33.28
2022-08-04T09:19:38.080Z,33.49
2022-08-04T09:22:22.737Z,33.49
2022-08-04T09:25:21.156Z,32.46
2022-08-04T09:27:55.615Z,32.12
2022-08-04T09:30:40.886Z,32.61
2022-08-04T09:33:45.555Z,32.18
2022-08-04T09:36:45.689Z,32.92
2022-08-04T09:39:32.164Z,32.70
2022-08-04T09:42:22.610Z,31.28
2022-08-04T09:45:26.137Z,29.55
2022-08-04T09:48:35.186Z,28.62
2022-08-04T09:51:58.240Z,28.08
2022-08-04T09:55:37.603Z,27.52
2022-08-04T09:58:46.957Z,27.02
2022-08-04T10:01:25.254Z,28.35
2022-08-04T10:04:02.126Z,26.83
2022-08-04T10:07:20.843Z,26.89
2022-08-04T10:10:20.369Z,25.74
2022-08-04T10:13:52.766Z,26.51
2022-08-04T10:16:55.555Z,24.95
2022-08-04T10:19:31.684Z,25.92
2022-08-04T10:22:28.462Z,25.20
2022-08-04T10:26:03.262Z,24.91
2022-08-04T10:28:15.295Z,24.95
2022-08-04T10:31:03.771Z,24.55
2022-08-04T10:33:41.647Z,25.33
2022-08-04T10:36:11.754Z,25.20
2022-08-04T10:39:13.756Z,23.85
2022-08-04T10:42:25.333Z,22.95
2022-08-04T10:45:19.438Z,23.31
2022-08-04T10:48:34.326Z,22.97
2022-08-04T10:51:57.343Z,22.01
2022-08-04T10:54:56.333Z,22.13
2022-08-04T10:57:35.927Z,22.25
2022-08-04T11:00:16.541Z,22.24
2022-08-04T11:02:57.110Z,22.82
2022-08-04T11:05:54.763Z,22.19
2022-08-04T11:08:45.275Z,21.40
2022-08-04T11:12:00.631Z,21.92
2022-08-04T11:14:44.621Z,22.35
2022-08-04T11:17:36.013Z,22.37
2022-08-04T11:20:37.543Z,21.00
2022-08-04T11:23:16.290Z,20.81
2022-08-04T11:26:20.332Z,20.05
2022-08-04T11:29:26.978Z,20.29
2022-08-04T11:32:01.290Z,19.38
2022-08-04T11:34:29.664Z,18.76
2022-08-04T11:37:48.412Z,19.13
2022-08-04T11:40:27.521Z,18.58
2022-08-04T11:43:07.148Z,17.85
2022-08-04T11:45:42.303Z,18.11
2022-08-04T11:48:16.476Z,18.38
2022-08-04T11:50:53.842Z,18.10
2022-08-04T11:53:36.362Z,18.27
2022-08-04T11:56:12.561Z,18.42
2022-08-04T11:58:41.852Z,18.78
2022-08-04T12:01:27.905Z,17.55
2022-08-04T12:04:19.139Z,17.57
2022-08-04T12:07:42.849Z,18.29
2022-08-04T12:11:06.105Z,17.19
2022-08-04T12:14:10.346Z,17.42
2022-08-04T12:17:05.937Z,17.38
2022-08-04T12:20:05.281Z,16.95
2022-08-04T12:22:51.261Z,17.09
2022-08-04T12:25:31.633Z,16.70
2022-08-04T12:28:19.393Z,16.48
2022-08-04T12:31:00.905Z,16.30
2022-08-04T12:34:04.451Z,16.65
2022-08-04T12:36:46.585Z,16.80
2022-08-04T12:39:20.716Z,17.58
2022-08-04T12:42:18.251Z,18.27
2022-08-04T12:44:54.124Z,18.52
2022-08-04T12:47:29.527Z,19.91
2022-08-04T12:50:04.003Z,20.79
2022-08-04T12:53:05.396Z,21.61
2022-08-04T12:55:35.498Z,21.74
2022-08-04T12:58:16.403Z,21.75
2022-08-04T13:02:07.883Z,24.25
2022-08-04T13:04:29.393Z,22.97
2022-08-04T13:07:05.720Z,22.73
2022-08-04T13:09:34.987Z,23.04
2022-08-04T13:12:16.581Z,22.33
2022-08-04T13:14:49.572Z,23.22
2022-08-04T13:17:19.827Z,23.98
2022-08-04T13:19:53.067Z,24.10
2022-08-04T13:22:28.708Z,24.40
2022-08-04T13:25:18.288Z,24.87
2022-08-04T13:27:55.498Z,25.14
2022-08-04T13:30:27.777Z,25.13
2022-08-04T13:33:01.851Z,25.90
2022-08-04T13:35:55.749Z,26.81
2022-08-04T13:38:20.018Z,30.00
2022-08-04T13:40:49.380Z,30.60
2022-08-04T13:44:15.332Z,32.12
2022-08-04T13:46:29.678Z,33.39
2022-08-04T13:51:59.992Z,33.82
2022-08-04T13:54:46.421Z,37.13
2022-08-04T13:57:31.949Z,36.41
2022-08-04T14:00:08.272Z,36.16
2022-08-04T14:03:23.428Z,35.42
2022-08-04T14:06:24.591Z,38.04
2022-08-04T14:09:08.039Z,36.61
2022-08-04T14:12:06.914Z,35.40
2022-08-04T14:14:33.874Z,34.63
2022-08-04T14:17:08.266Z,34.57
2022-08-04T14:19:55.988Z,34.22
2022-08-04T14:22:27.109Z,35.93
2022-08-04T14:25:16.910Z,34.30
2022-08-04T14:27:48.954Z,33.91
2022-08-04T14:30:37.584Z,32.82
2022-08-04T14:34:02.816Z,32.29
2022-08-04T14:36:01.579Z,32.30
2022-08-04T14:38:52.457Z,31.76
2022-08-04T14:41:44.149Z,32.17
2022-08-04T14:44:12.601Z,32.02
2022-08-04T14:46:53.740Z,33.30
2022-08-04T14:49:22.826Z,33.18
2022-08-04T14:52:09.351Z,33.44
2022-08-04T14:54:37.660Z,33.43
2022-08-04T14:57:08.080Z,33.69
2022-08-04T15:00:00.797Z,32.98
2022-08-04T15:02:32.344Z,30.64
2022-08-04T15:06:04.010Z,28.70
2022-08-04T15:07:50.954Z,28.22
2022-08-04T15:10:21.078Z,27.30
2022-08-04T15:12:49.487Z,27.41
2022-08-04T15:15:35.942Z,26.57
2022-08-04T15:18:08.277Z,25.18
2022-08-04T15:20:38.756Z,25.00
2022-08-04T15:23:13.070Z,25.55
2022-08-04T15:25:53.511Z,24.33
2022-08-04T15:28:25.625Z,23.21
2022-08-04T15:32:08.670Z,23.00
2022-08-04T15:34:11.713Z,23.58
2022-08-04T15:36:57.839Z,23.56
2022-08-04T15:39:46.998Z,22.96
2022-08-04T15:42:36.116Z,22.03
2022-08-04T15:46:02.402Z,22.65
2022-08-04T15:48:12.713Z,22.88
2022-08-04T15:50:56.137Z,22.52
2022-08-04T15:53:28.659Z,23.18
2022-08-04T15:56:29.957Z,25.62
2022-08-04T15:58:58.689Z,27.27
2022-08-04T16:01:27.637Z,28.14
2022-08-04T16:03:59.863Z,29.92
2022-08-04T16:06:30.471Z,29.71
2022-08-04T16:09:02.091Z,29.45
2022-08-04T16:11:32.457Z,29.98
2022-08-04T16:14:01.377Z,30.34
2022-08-04T16:16:31.615Z,30.36
2022-08-04T16:19:13.308Z,31.45
2022-08-04T16:21:54.897Z,31.25
2022-08-04T16:24:36.798Z,30.89
2022-08-04T16:27:10.236Z,31.86
2022-08-04T16:29:39.736Z,31.86
2022-08-04T16:32:15.894Z,32.47
2022-08-04T16:35:03.192Z,33.40
2022-08-04T16:37:40.651Z,34.53
2022-08-04T16:40:37.162Z,34.72
2022-08-04T16:43:17.314Z,35.86
2022-08-04T16:45:58.766Z,35.45
2022-08-04T16:48:34.603Z,36.12
2022-08-04T16:51:14.456Z,35.72
2022-08-04T16:53:53.106Z,35.92
2022-08-04T16:56:34.166Z,35.90
2022-08-04T16:59:11.084Z,35.09
2022-08-04T17:01:49.602Z,35.81
2022-08-04T17:04:18.404Z,35.33
2022-08-04T17:06:47.139Z,37.91
2022-08-04T17:09:19.482Z,37.47
2022-08-04T17:11:48.413Z,38.28
2022-08-04T17:14:28.093Z,37.09
2022-08-04T17:17:01.792Z,36.52
2022-08-04T17:19:30.217Z,38.13
2022-08-04T17:22:07.814Z,36.96
2022-08-04T17:24:40.403Z,36.73
2022-08-04T17:28:08.456Z,37.27
2022-08-04T17:29:58.707Z,36.43
2022-08-04T17:32:27.385Z,36.66
2022-08-04T17:35:02.120Z,36.13
2022-08-04T17:37:52.122Z,35.38
2022-08-04T17:40:25.524Z,35.47
2022-08-04T17:44:03.119Z,35.99
2022-08-04T17:46:28.954Z,36.32
2022-08-04T17:49:20.902Z,37.06
2022-08-04T17:52:04.633Z,36.70
2022-08-04T17:54:40.932Z,37.71
2022-08-04T17:57:22.561Z,35.81
2022-08-04T17:59:59.095Z,37.02
2022-08-04T18:02:34.391Z,37.98
2022-08-04T18:05:11.752Z,39.18
2022-08-04T18:08:42.825Z,38.59
2022-08-04T18:10:54.745Z,38.46
2022-08-04T18:13:28.832Z,39.35
2022-08-04T18:16:05.199Z,39.30
2022-08-04T18:18:34.870Z,38.40
2022-08-04T18:21:06.357Z,39.43
2022-08-04T18:23:34.753Z,41.72
2022-08-04T18:26:18.749Z,40.50
2022-08-04T18:28:52.589Z,40.55
2022-08-04T18:31:21.458Z,40.45
2022-08-04T18:33:57.351Z,41.15
2022-08-04T18:36:35.232Z,39.39
2022-08-04T18:39:12.903Z,41.50
2022-08-04T18:42:02.527Z,41.21
2022-08-04T18:44:49.311Z,41.29
2022-08-04T18:47:24.990Z,41.71
2022-08-04T18:51:00.674Z,44.44
2022-08-04T18:52:47.237Z,43.04
2022-08-04T18:55:55.844Z,44.93
2022-08-04T18:58:07.401Z,43.51
2022-08-04T19:00:45.276Z,42.80
2022-08-04T19:03:16.303Z,44.21
2022-08-04T19:05:51.303Z,43.22
2022-08-04T19:08:33.228Z,44.72
2022-08-04T19:11:38.517Z,44.42
2022-08-04T19:16:45.674Z,43.13
2022-08-04T19:19:15.201Z,43.36
2022-08-04T19:22:00.220Z,42.55
2022-08-04T19:24:34.424Z,45.73
2022-08-04T19:27:07.368Z,43.93
2022-08-04T19:29:41.081Z,44.92
2022-08-04T19:32:28.690Z,45.20
2022-08-04T19:34:59.500Z,44.99
2022-08-04T19:37:58.203Z,47.50
2022-08-04T19:40:17.569Z,47.01
2022-08-04T19:43:14.238Z,46.68
2022-08-04T19:48:32.552Z,44.52
2022-08-04T19:51:01.069Z,43.89
2022-08-04T19:53:37.738Z,44.83
2022-08-04T19:56:11.425Z,44.68
2022-08-04T19:58:47.511Z,44.34
2022-08-04T20:01:33.448Z,44.39
2022-08-04T20:04:09.219Z,44.62
2022-08-04T20:06:39.526Z,43.17
2022-08-04T20:09:24.546Z,41.88
2022-08-04T20:11:57.916Z,42.63
2022-08-04T20:14:31.259Z,42.78
2022-08-04T20:17:10.221Z,45.91
2022-08-04T20:19:39.766Z,46.01
2022-08-04T20:22:51.971Z,46.36
2022-08-04T20:25:17.951Z,50.08
2022-08-04T20:27:51.622Z,50.63
2022-08-04T20:30:29.941Z,52.25
2022-08-04T20:33:00.759Z,54.11
2022-08-04T20:35:30.508Z,53.37
2022-08-04T20:38:01.323Z,51.56
2022-08-04T20:40:31.038Z,52.26
2022-08-04T20:42:59.905Z,50.76
2022-08-04T20:45:55.814Z,49.97
2022-08-04T20:48:16.928Z,48.26
2022-08-04T20:50:46.681Z,49.41
2022-08-04T20:53:16.673Z,47.41
2022-08-04T20:55:55.216Z,48.47
2022-08-04T20:58:27.444Z,48.24
2022-08-04T21:00:56.999Z,48.25
2022-08-04T21:03:49.558Z,48.35
2022-08-04T21:06:13.791Z,48.90
2022-08-04T21:08:56.925Z,49.26
2022-08-04T21:11:32.739Z,48.43
2022-08-04T21:14:01.821Z,47.55
2022-08-04T21:16:55.677Z,48.15
2022-08-04T21:19:18.651Z,47.99
2022-08-04T21:21:53.243Z,49.30
2022-08-04T21:24:26.163Z,48.23
2022-08-04T21:26:57.078Z,47.40
2022-08-04T21:29:34.815Z,47.36
2022-08-04T21:32:08.730Z,47.43
2022-08-04T21:34:39.846Z,48.11
2022-08-04T21:37:10.417Z,46.49
2022-08-04T21:39:50.485Z,46.91
2022-08-04T21:42:29.462Z,46.61
2022-08-04T21:44:58.831Z,46.24
2022-08-04T21:47:45.830Z,46.80
2022-08-04T21:50:19.520Z,46.94
2022-08-04T21:52:49.842Z,46.01
2022-08-04T21:55:19.020Z,47.19
2022-08-04T22:00:36.041Z,46.80
2022-08-04T22:03:06.290Z,47.21
2022-08-04T22:05:46.936Z,46.42
2022-08-04T22:08:19.969Z,47.09
2022-08-04T22:10:51.826Z,46.34
2022-08-04T22:13:22.442Z,46.64
2022-08-04T22:16:03.956Z,47.72
2022-08-04T22:18:36.902Z,47.71
2022-08-04T22:21:12.041Z,47.86
2022-08-04T22:23:45.116Z,46.78
2022-08-04T22:26:20.147Z,47.71
2022-08-04T22:28:57.019Z,47.61
2022-08-04T22:31:25.984Z,48.87
2022-08-04T22:33:56.091Z,47.68
2022-08-04T22:36:25.128Z,48.70
2022-08-04T22:39:04.336Z,48.79
2022-08-04T22:42:03.046Z,48.07
2022-08-04T22:44:23.803Z,48.04
2022-08-04T22:46:52.773Z,49.10
2022-08-04T22:49:25.181Z,47.73
2022-08-04T22:51:59.913Z,47.67
2022-08-04T22:54:37.916Z,48.71
2022-08-04T22:57:06.230Z,47.87
2022-08-04T22:59:41.168Z,48.21
2022-08-04T23:02:11.546Z,48.56
2022-08-04T23:04:44.359Z,47.72
2022-08-04T23:07:12.681Z,49.17
2022-08-04T23:09:50.235Z,49.08
2022-08-04T23:12:25.748Z,49.76
2022-08-04T23:14:57.229Z,50.05
2022-08-04T23:17:28.697Z,50.01
2022-08-04T23:19:59.161Z,50.15
2022-08-04T23:22:40.975Z,49.80
2022-08-04T23:25:15.156Z,48.33
2022-08-04T23:27:50.812Z,49.54
2022-08-04T23:30:29.749Z,49.69
2022-08-04T23:32:58.924Z,49.23
2022-08-04T23:35:27.680Z,48.74
2022-08-04T23:37:58.099Z,49.83
2022-08-04T23:40:34.069Z,48.55
2022-08-04T23:43:12.355Z,49.79
2022-08-04T23:46:01.976Z,50.97
2022-08-04T23:48:36.219Z,51.17
2022-08-04T23:51:14.716Z,51.62
2022-08-04T23:54:03.613Z,50.51
2022-08-04T23:56:35.842Z,50.75
2022-08-04T23:59:06.349Z,49.92
